Time;durP1;ratioP1;P1;durP2;ratioP2;P2;SDS_P1;SDS_P2;PMS_P1;PMS_P2;Temp;Humidity;BMP_temperature;BMP_pressure;BME280_temperature;BME280_humidity;BME280_pressure;Samples;Min_cycle;Max_cycle;Signal;HPM_P1;HPM_P2
2022/04/05 14:08:00;;;;;;;6.83;5.90;;;;;;;10.94;64.09;98505.13;4137318;28;20392;-34
2022/04/05 14:10:03;;;;;;;7.17;6.23;;;;;;;10.55;65.10;98472.63;4113108;28;20221;-37
2022/04/05 14:12:07;;;;;;;12.33;11.23;;;;;;;11.23;63.97;98500.63;4120390;28;20671;-34
2022/04/05 14:14:09;;;;;;;7.63;6.80;;;;;;;11.07;64.40;98478.63;4139491;28;20579;-34
2022/04/05 14:16:11;;;;;;;7.60;6.90;;;;;;;10.80;64.46;98443.00;4136406;28;20288;-39
2022/04/05 14:18:13;;;;;;;8.70;6.93;;;;;;;11.26;63.47;98469.13;4137022;28;20230;-32
2022/04/05 14:20:19;;;;;;;6.90;6.17;;;;;;;11.10;63.98;98456.94;4139153;28;22237;-35
2022/04/05 14:22:20;;;;;;;6.77;6.07;;;;;;;11.46;63.14;98455.09;4141854;28;20694;-35
2022/04/05 14:24:22;;;;;;;7.47;6.03;;;;;;;11.55;62.62;98441.44;4146865;28;20244;-36
2022/04/05 14:26:24;;;;;;;6.23;5.63;;;;;;;11.12;64.06;98446.09;4124787;28;20230;-33
2022/04/05 14:28:29;;;;;;;6.80;6.00;;;;;;;11.40;62.90;98434.63;4143111;28;20296;-33
2022/04/05 14:30:31;;;;;;;6.37;5.73;;;;;;;11.24;63.72;98436.59;4138794;28;20308;-35
2022/04/05 14:32:33;;;;;;;7.13;5.70;;;;;;;11.55;63.02;98449.44;4143791;28;20336;-35
2022/04/05 14:34:35;;;;;;;6.27;5.53;;;;;;;10.46;65.72;98444.53;4143678;28;20233;-36
2022/04/05 14:36:36;;;;;;;9.97;6.27;;;;;;;11.43;63.76;98466.97;4142194;28;20245;-32
2022/04/05 14:38:38;;;;;;;6.00;5.40;;;;;;;11.36;63.09;98437.66;4143226;28;20233;-35
2022/04/05 14:40:41;;;;;;;5.67;5.10;;;;;;;11.52;62.99;98435.69;4139565;28;20241;-36
2022/04/05 14:42:43;;;;;;;7.10;6.07;;;;;;;11.95;62.16;98443.50;4144544;28;20706;-42
2022/04/05 14:45:00;;;;;;;6.53;5.80;;;;;;;11.61;62.49;98394.59;4143112;28;20734;-33
2022/04/05 14:47:22;;;;;;;8.37;5.67;;;;;;;11.94;62.19;98406.41;4141106;28;20316;-32
2022/04/05 14:49:26;;;;;;;5.30;4.80;;;;;;;11.55;63.25;98406.03;4143120;28;20248;-34
2022/04/05 14:51:33;;;;;;;8.70;5.10;;;;;;;11.16;64.00;98407.47;4142726;28;20233;-33
2022/04/05 14:53:35;;;;;;;7.20;5.57;;;;;;;11.59;63.40;98428.56;4142087;28;20238;-33
2022/04/05 14:55:37;;;;;;;7.07;5.23;;;;;;;11.65;62.76;98435.75;4141837;28;20225;-37
2022/04/05 14:57:39;;;;;;;6.73;5.67;;;;;;;10.95;65.55;98446.41;4140957;28;20233;-34
2022/04/05 14:59:41;;;;;;;12.73;7.97;;;;;;;11.40;63.82;98423.97;4139192;28;20244;-37
2022/04/05 15:01:49;;;;;;;8.87;6.80;;;;;;;10.94;64.31;98407.53;4141494;28;20240;-33
2022/04/05 15:03:51;;;;;;;6.40;5.03;;;;;;;10.59;65.81;98443.84;4141170;28;20337;-34
2022/04/05 15:05:53;;;;;;;6.30;5.30;;;;;;;11.29;64.17;98438.63;4139663;28;20284;-37
2022/04/05 15:07:56;;;;;;;6.97;5.43;;;;;;;10.53;66.55;98466.69;4138448;28;20336;-32
2022/04/05 15:09:58;;;;;;;6.30;4.70;;;;;;;10.43;67.18;98490.06;4140464;28;20271;-36
2022/04/05 15:11:59;;;;;;;8.13;5.63;;;;;;;11.76;63.01;98450.34;4125968;28;20230;-32
2022/04/05 15:14:02;;;;;;;9.80;7.70;;;;;;;11.94;62.79;98431.19;4138649;28;20333;-38
2022/04/05 15:16:10;;;;;;;7.57;6.33;;;;;;;11.74;62.58;98409.78;4142343;28;20238;-33
2022/04/05 15:18:12;;;;;;;8.33;5.27;;;;;;;11.66;63.04;98432.09;4141744;28;20296;-36
2022/04/05 15:20:14;;;;;;;7.77;5.23;;;;;;;11.67;62.93;98424.91;4140470;28;20618;-35
2022/04/05 15:22:15;;;;;;;4.90;4.30;;;;;;;11.33;63.87;98434.59;4140079;28;20262;-38
2022/04/05 15:24:18;;;;;;;7.17;5.17;;;;;;;11.77;62.74;98427.22;4141243;28;20271;-36
2022/04/05 15:26:20;;;;;;;5.77;4.73;;;;;;;11.99;61.98;98433.25;4142070;28;20237;-39
2022/04/05 15:28:21;;;;;;;6.43;4.90;;;;;;;11.70;62.60;98416.53;4141077;28;20304;-34
2022/04/05 15:30:24;;;;;;;5.33;4.80;;;;;;;11.84;62.59;98426.22;4143034;28;20233;-33
2022/04/05 15:32:25;;;;;;;5.43;4.93;;;;;;;12.53;61.15;98440.31;4143282;28;20236;-33
2022/04/05 15:34:27;;;;;;;6.43;5.63;;;;;;;11.68;62.81;98395.44;4141049;28;20241;-37
2022/04/05 15:36:39;;;;;;;4.97;4.57;;;;;;;11.83;62.58;98434.38;4138375;28;20221;-35
2022/04/05 15:38:41;;;;;;;5.80;4.63;;;;;;;11.96;61.89;98407.81;4141775;28;20229;-36
2022/04/05 15:40:43;;;;;;;5.60;4.27;;;;;;;11.57;63.12;98398.66;4137760;28;20307;-36
2022/04/05 15:42:46;;;;;;;5.07;4.53;;;;;;;11.24;63.58;98385.19;4142692;28;20618;-34
2022/04/05 15:44:48;;;;;;;4.97;4.47;;;;;;;11.86;63.01;98423.38;4144690;28;21788;-37
2022/04/05 15:46:52;;;;;;;5.97;4.60;;;;;;;11.63;62.75;98389.88;4141855;28;20319;-37
2022/04/05 15:48:58;;;;;;;7.40;4.80;;;;;;;11.77;63.08;98453.84;4119957;28;20234;-37
2022/04/05 15:50:59;;;;;;;5.90;5.30;;;;;;;12.10;62.00;98420.19;4147690;28;20611;-36
2022/04/05 15:53:05;;;;;;;7.63;6.60;;;;;;;10.97;63.98;98406.31;4146725;28;20335;-37
2022/04/05 15:55:08;;;;;;;6.90;6.13;;;;;;;12.11;61.71;98451.09;4145644;28;20248;-33
2022/04/05 15:57:10;;;;;;;9.67;7.07;;;;;;;10.34;66.18;98467.31;4146403;28;20834;-34
2022/04/05 15:59:12;;;;;;;8.10;5.70;;;;;;;11.91;62.58;98450.22;4144224;28;20292;-36
2022/04/05 16:01:14;;;;;;;6.03;5.43;;;;;;;12.04;62.08;98436.13;4146012;28;20711;-35
2022/04/05 16:03:16;;;;;;;6.30;5.70;;;;;;;11.99;62.23;98441.25;4146040;28;20843;-34
2022/04/05 16:05:18;;;;;;;7.37;6.10;;;;;;;12.21;62.31;98458.72;4146616;28;20252;-40
2022/04/05 16:07:20;;;;;;;11.03;7.33;;;;;;;12.37;61.76;98443.38;4146172;28;20296;-38
2022/04/05 16:09:27;;;;;;;9.13;7.27;;;;;;;12.62;61.09;98444.47;4140034;28;20237;-37
2022/04/05 16:11:29;;;;;;;9.67;6.93;;;;;;;12.22;61.35;98400.94;4147334;28;20637;-38
2022/04/05 16:13:31;;;;;;;8.20;6.30;;;;;;;12.07;62.28;98419.75;4139948;28;20236;-34
2022/04/05 16:15:33;;;;;;;6.60;5.53;;;;;;;12.33;61.81;98434.97;4145261;28;20257;-32
2022/04/05 16:17:35;;;;;;;8.37;6.23;;;;;;;12.13;62.10;98399.47;4146073;28;20230;-34
2022/04/05 16:19:36;;;;;;;7.80;6.63;;;;;;;12.26;61.87;98426.16;4145595;28;20237;-38
2022/04/05 16:21:38;;;;;;;7.37;6.17;;;;;;;12.18;62.20;98426.34;4145341;28;20225;-36
2022/04/05 16:23:40;;;;;;;7.10;6.40;;;;;;;11.96;62.30;98413.16;4146764;28;20237;-35
2022/04/05 16:25:42;;;;;;;7.40;6.03;;;;;;;12.27;62.33;98449.13;4144277;28;20233;-34
2022/04/05 16:27:44;;;;;;;8.07;6.37;;;;;;;12.01;62.68;98429.34;4145900;28;20225;-32
2022/04/05 16:29:46;;;;;;;6.23;5.63;;;;;;;12.02;62.57;98422.22;4145189;28;20284;-35
2022/04/05 16:31:48;;;;;;;6.70;5.87;;;;;;;12.59;60.74;98412.00;4144559;28;20229;-36
2022/04/05 16:33:52;;;;;;;6.33;5.57;;;;;;;12.45;61.50;98433.38;4145400;28;20248;-36
2022/04/05 16:35:54;;;;;;;7.20;6.03;;;;;;;12.24;61.71;98415.69;4146926;28;20239;-35
2022/04/05 16:37:56;;;;;;;7.67;5.83;;;;;;;12.32;61.88;98424.50;4145636;28;20930;-37
2022/04/05 16:39:58;;;;;;;6.50;5.50;;;;;;;12.06;62.36;98408.25;4139288;28;20233;-36
2022/04/05 16:42:00;;;;;;;7.40;6.40;;;;;;;12.39;61.69;98426.16;4144734;28;20233;-33
2022/04/05 16:44:04;;;;;;;8.43;7.00;;;;;;;12.03;62.62;98406.03;4145341;28;20237;-35
2022/04/05 16:46:06;;;;;;;7.97;6.93;;;;;;;12.44;61.77;98429.03;4145110;28;20288;-35
2022/04/05 16:48:08;;;;;;;8.73;6.47;;;;;;;12.26;61.85;98404.81;4144716;28;20271;-34
2022/04/05 16:50:12;;;;;;;9.23;7.10;;;;;;;12.43;61.41;98414.06;4145013;28;20237;-35
2022/04/05 16:52:14;;;;;;;8.47;7.57;;;;;;;12.16;62.98;98426.53;4145370;28;20244;-35
2022/04/05 16:54:16;;;;;;;9.27;7.23;;;;;;;12.27;61.83;98411.81;4145262;28;20245;-34
2022/04/05 16:56:18;;;;;;;10.60;8.30;;;;;;;12.56;61.72;98433.78;4145524;28;20229;-35
2022/04/05 16:58:20;;;;;;;9.30;7.93;;;;;;;12.10;62.38;98409.53;4144261;28;20610;-36
2022/04/05 17:00:22;;;;;;;8.73;6.60;;;;;;;11.82;63.35;98400.81;4145229;28;20248;-38
2022/04/05 17:02:24;;;;;;;10.83;8.20;;;;;;;12.08;62.89;98402.75;4146442;28;20233;-39
2022/04/05 17:04:26;;;;;;;7.67;6.77;;;;;;;12.37;62.07;98420.22;4145138;28;20291;-36
2022/04/05 17:06:28;;;;;;;8.53;6.73;;;;;;;12.19;62.64;98420.81;4147385;28;20240;-32
2022/04/05 17:08:30;;;;;;;10.67;6.97;;;;;;;11.76;64.44;98452.19;4146044;28;20232;-33
2022/04/05 17:10:31;;;;;;;11.57;8.07;;;;;;;12.54;62.05;98457.13;4144673;28;20699;-34
2022/04/05 17:12:39;;;;;;;9.50;7.13;;;;;;;12.35;62.14;98410.78;4147239;28;20233;-32
2022/04/05 17:14:41;;;;;;;9.63;7.93;;;;;;;12.45;61.97;98429.84;4144727;28;20245;-34
2022/04/05 17:16:43;;;;;;;7.00;6.30;;;;;;;12.56;61.78;98439.94;4137620;28;20690;-33
2022/04/05 17:18:45;;;;;;;7.47;6.50;;;;;;;11.87;63.90;98425.84;4145923;28;20225;-34
2022/04/05 17:20:47;;;;;;;8.50;7.13;;;;;;;12.06;62.87;98426.91;4144796;28;20233;-34
2022/04/05 17:22:49;;;;;;;7.47;6.10;;;;;;;11.98;63.68;98435.09;4144873;28;20248;-35
2022/04/05 17:24:50;;;;;;;7.93;6.27;;;;;;;11.78;63.99;98432.34;4145363;28;21144;-38
2022/04/05 17:26:53;;;;;;;7.90;6.20;;;;;;;11.95;63.50;98430.19;4146510;28;20961;-34
2022/04/05 17:28:57;;;;;;;8.13;6.37;;;;;;;12.11;63.02;98443.13;4145066;28;20240;-32
2022/04/05 17:30:59;;;;;;;11.17;7.37;;;;;;;12.31;62.86;98438.88;4144240;28;20229;-34
2022/04/05 17:33:01;;;;;;;8.50;6.70;;;;;;;11.92;63.60;98427.91;4144761;28;20237;-36
2022/04/05 17:35:04;;;;;;;8.93;6.43;;;;;;;11.89;63.65;98436.28;4145812;28;20237;-39
2022/04/05 17:37:06;;;;;;;8.30;6.53;;;;;;;12.16;62.82;98437.19;4144671;28;20236;-33
2022/04/05 17:39:08;;;;;;;9.53;7.33;;;;;;;12.15;62.87;98440.91;4127994;28;20240;-32
2022/04/05 17:41:10;;;;;;;10.07;7.23;;;;;;;12.33;63.00;98460.81;4145183;28;20777;-34
2022/04/05 17:43:12;;;;;;;7.83;6.77;;;;;;;11.49;64.42;98417.47;4143334;28;20248;-36
2022/04/05 17:45:14;;;;;;;10.47;6.57;;;;;;;11.42;65.28;98459.19;4144792;28;20303;-31
2022/04/05 17:47:16;;;;;;;8.47;6.83;;;;;;;11.58;64.76;98442.06;4145282;28;20229;-35
2022/04/05 17:49:19;;;;;;;9.33;7.50;;;;;;;12.42;62.18;98459.59;4143275;28;20235;-44
2022/04/05 17:51:21;;;;;;;8.77;7.70;;;;;;;11.72;64.50;98454.44;4143413;28;20694;-32
2022/04/05 17:53:23;;;;;;;12.30;8.63;;;;;;;12.12;63.54;98475.94;4145448;28;20223;-33
2022/04/05 17:55:44;;;;;;;10.87;8.43;;;;;;;12.27;62.62;98441.13;4142485;28;20332;-37
2022/04/05 17:57:47;;;;;;;12.03;8.47;;;;;;;11.73;64.73;98442.78;4145186;28;20232;-36
2022/04/05 17:59:49;;;;;;;12.40;8.97;;;;;;;11.41;65.40;98437.09;4145040;28;20619;-36
2022/04/05 18:01:52;;;;;;;12.73;9.13;;;;;;;11.88;64.38;98470.09;4143673;28;20233;-36
2022/04/05 18:03:54;;;;;;;10.83;8.77;;;;;;;11.46;65.58;98453.28;4141978;28;20228;-34
2022/04/05 18:05:55;;;;;;;10.73;9.10;;;;;;;12.05;63.91;98462.59;4145058;28;20233;-36
2022/04/05 18:07:57;;;;;;;9.67;8.17;;;;;;;12.11;63.51;98460.94;4144682;28;20237;-31
2022/04/05 18:09:59;;;;;;;10.13;7.90;;;;;;;11.90;64.66;98457.41;4138187;28;20261;-37
2022/04/05 18:12:01;;;;;;;11.40;8.97;;;;;;;11.98;63.88;98448.41;4145087;28;20702;-33
2022/04/05 18:14:07;;;;;;;11.87;8.47;;;;;;;12.00;63.94;98454.38;4143231;28;20615;-33
2022/04/05 18:16:09;;;;;;;11.67;8.50;;;;;;;12.15;63.10;98448.03;4143875;28;20390;-32
2022/04/05 18:18:11;;;;;;;10.17;8.20;;;;;;;12.24;63.29;98468.19;4144136;28;20269;-33
2022/04/05 18:20:13;;;;;;;10.37;8.30;;;;;;;12.27;63.35;98476.59;4143679;28;20233;-33
2022/04/05 18:22:15;;;;;;;9.40;8.40;;;;;;;11.92;63.74;98438.56;4143563;28;20283;-37
2022/04/05 18:24:19;;;;;;;9.73;8.70;;;;;;;12.50;62.32;98472.72;4143899;28;20233;-37
2022/04/05 18:26:21;;;;;;;10.17;9.10;;;;;;;12.29;62.80;98444.41;4140636;28;20231;-34
2022/04/05 18:28:23;;;;;;;12.80;9.37;;;;;;;12.84;61.46;98462.91;4143816;28;20232;-36
2022/04/05 18:30:25;;;;;;;11.60;9.47;;;;;;;12.35;63.13;98464.91;4143648;28;20280;-36
2022/04/05 18:32:27;;;;;;;10.07;8.73;;;;;;;12.46;62.72;98472.31;4143233;28;20229;-38
2022/04/05 18:34:29;;;;;;;11.93;9.73;;;;;;;12.59;62.47;98478.69;4142468;28;20773;-38
2022/04/05 18:36:31;;;;;;;11.13;9.13;;;;;;;12.44;62.34;98466.38;4143761;28;20238;-33
2022/04/05 18:38:32;;;;;;;9.47;8.30;;;;;;;12.90;61.60;98498.66;4145342;28;20290;-35
2022/04/05 18:40:38;;;;;;;12.50;8.60;;;;;;;12.65;61.94;98464.53;4137838;28;20248;-34
2022/04/05 18:42:42;;;;;;;9.07;8.13;;;;;;;12.92;61.51;98493.94;4144925;28;20272;-39
2022/04/05 18:44:45;;;;;;;9.23;7.50;;;;;;;12.50;62.08;98447.91;4143413;28;20233;-32
2022/04/05 18:46:47;;;;;;;14.53;10.47;;;;;;;12.92;61.35;98488.59;4143948;28;20929;-36
2022/04/05 18:48:49;;;;;;;9.90;8.87;;;;;;;12.43;62.64;98469.22;4143773;28;20240;-36
2022/04/05 18:50:50;;;;;;;9.67;7.70;;;;;;;12.66;61.77;98461.69;4144001;28;20315;-33
2022/04/05 18:52:53;;;;;;;13.17;9.73;;;;;;;12.89;61.47;98481.00;4142938;28;20244;-36
2022/04/05 18:54:55;;;;;;;12.40;9.67;;;;;;;12.51;62.16;98462.91;4143954;28;20264;-35
2022/04/05 18:57:14;;;;;;;16.07;12.00;;;;;;;12.58;62.00;98485.88;4143169;28;20230;-37
2022/04/05 18:59:18;;;;;;;14.07;10.00;;;;;;;12.81;61.50;98488.16;4143210;28;20233;-37
2022/04/05 19:01:20;;;;;;;11.83;8.63;;;;;;;12.61;62.17;98496.13;4126904;28;20234;-39
2022/04/05 19:03:25;;;;;;;11.63;8.47;;;;;;;12.68;61.90;98493.47;4129883;28;20229;-36
2022/04/05 19:05:28;;;;;;;8.77;7.53;;;;;;;11.96;64.51;98506.41;4142547;28;20260;-31
2022/04/05 19:07:29;;;;;;;11.37;9.17;;;;;;;12.29;63.35;98509.19;4144989;28;20310;-32
2022/04/05 19:09:31;;;;;;;9.70;8.30;;;;;;;12.18;63.43;98493.75;4142828;28;20229;-33
2022/04/05 19:11:34;;;;;;;11.07;8.60;;;;;;;12.40;62.69;98496.28;4140600;28;20310;-39
2022/04/05 19:13:36;;;;;;;11.33;8.37;;;;;;;12.78;61.68;98493.09;4141834;28;20237;-31
2022/04/05 19:15:38;;;;;;;9.33;8.17;;;;;;;11.53;64.91;98483.41;4143961;28;20235;-31
2022/04/05 19:17:40;;;;;;;8.73;7.47;;;;;;;11.60;65.04;98503.94;4140192;28;20233;-32
2022/04/05 19:19:41;;;;;;;8.70;6.80;;;;;;;12.28;64.24;98549.34;4141710;28;20236;-34
2022/04/05 19:21:43;;;;;;;8.43;7.43;;;;;;;10.77;68.46;98573.69;4142200;28;20261;-34
2022/04/05 19:23:45;;;;;;;7.43;6.57;;;;;;;10.74;68.85;98566.88;4140287;28;20236;-35
2022/04/05 19:25:47;;;;;;;8.87;7.20;;;;;;;11.09;67.74;98548.41;4145993;28;20229;-37
2022/04/05 19:27:49;;;;;;;8.93;6.90;;;;;;;12.04;65.49;98540.84;4144631;28;20241;-34
2022/04/05 19:29:51;;;;;;;9.03;6.70;;;;;;;12.76;62.43;98482.63;4146121;28;20241;-35
2022/04/05 19:31:53;;;;;;;9.80;8.07;;;;;;;11.22;66.63;98515.75;4145337;28;20307;-32
2022/04/05 19:33:54;;;;;;;10.30;7.40;;;;;;;12.79;62.67;98518.72;4146404;28;20240;-31
2022/04/05 19:35:56;;;;;;;9.43;6.77;;;;;;;12.28;63.54;98506.72;4146184;28;20244;-31
2022/04/05 19:37:58;;;;;;;8.53;7.20;;;;;;;12.18;63.37;98480.44;4128310;28;20238;-32
2022/04/05 19:40:01;;;;;;;8.70;7.20;;;;;;;12.62;63.10;98520.94;4146179;28;20233;-34
2022/04/05 19:42:02;;;;;;;9.23;7.67;;;;;;;12.34;63.62;98521.91;4147136;28;20237;-35
2022/04/05 19:44:05;;;;;;;10.43;8.13;;;;;;;12.39;62.72;98486.66;4145856;28;20229;-37
2022/04/05 19:46:06;;;;;;;11.60;6.70;;;;;;;13.20;61.05;98531.91;4147318;28;20229;-35
2022/04/05 19:48:08;;;;;;;9.23;7.60;;;;;;;12.21;62.96;98495.22;4146854;28;20721;-36
2022/04/05 19:50:11;;;;;;;10.03;7.57;;;;;;;12.29;63.21;98519.84;4145697;28;20229;-34
2022/04/05 19:52:15;;;;;;;12.07;7.70;;;;;;;12.50;62.76;98525.22;4143967;28;20237;-43
2022/04/05 19:54:17;;;;;;;8.87;7.77;;;;;;;12.68;62.09;98512.16;4142754;28;20244;-36
2022/04/05 19:56:18;;;;;;;9.43;8.37;;;;;;;12.91;61.47;98529.63;4141685;28;20271;-36
2022/04/05 19:58:20;;;;;;;7.83;7.00;;;;;;;11.69;65.34;98575.47;4142935;28;20233;-37
2022/04/05 20:00:22;;;;;;;9.67;7.57;;;;;;;11.72;65.93;98582.25;4143059;28;20233;-32
2022/04/05 20:02:23;;;;;;;11.50;9.27;;;;;;;12.29;63.62;98545.69;4142565;28;20269;-35
2022/04/05 20:04:25;;;;;;;12.30;9.67;;;;;;;12.64;62.79;98532.22;4142890;28;20236;-37
2022/04/05 20:06:27;;;;;;;11.07;9.60;;;;;;;12.99;61.79;98508.94;4143106;28;20233;-32
2022/04/05 20:08:30;;;;;;;13.80;10.00;;;;;;;12.49;63.30;98521.75;4141461;28;20765;-35
2022/04/05 20:10:32;;;;;;;18.17;11.70;;;;;;;13.04;61.70;98524.31;4141374;28;20229;-37
2022/04/05 20:12:34;;;;;;;13.33;9.10;;;;;;;12.27;63.53;98500.56;4125047;28;20240;-32
2022/04/05 20:14:36;;;;;;;15.57;9.30;;;;;;;12.26;63.54;98514.09;4142426;28;20223;-38
2022/04/05 20:18:58;;;;;;;9.00;7.87;;;;;;;11.97;64.59;98536.53;4141416;28;20325;-35
2022/04/05 20:21:00;;;;;;;11.07;7.80;;;;;;;12.39;62.74;98508.81;4142539;28;20226;-36
2022/04/05 20:23:02;;;;;;;9.67;7.37;;;;;;;11.84;64.97;98537.25;4142284;28;20249;-31
2022/04/05 20:25:05;;;;;;;9.17;7.43;;;;;;;12.83;61.90;98494.09;4141508;28;20312;-37
2022/04/05 20:27:07;;;;;;;9.73;7.27;;;;;;;11.42;66.64;98561.16;4139016;28;20237;-32
2022/04/05 20:29:11;;;;;;;8.97;7.67;;;;;;;12.20;64.10;98530.88;4144381;28;20852;-33
2022/04/05 20:31:12;;;;;;;10.97;7.33;;;;;;;12.03;64.81;98536.56;4145319;28;20237;-31
2022/04/05 20:33:14;;;;;;;9.27;7.57;;;;;;;12.07;64.31;98519.16;4144224;28;20756;-33
2022/04/05 20:35:16;;;;;;;10.00;7.83;;;;;;;12.72;62.36;98500.03;4144700;28;20259;-34
2022/04/05 20:37:18;;;;;;;9.03;7.33;;;;;;;12.61;62.76;98514.00;4139723;28;20252;-38
2022/04/05 20:39:20;;;;;;;10.07;6.97;;;;;;;11.87;64.54;98491.63;4143084;28;20241;-37
2022/04/05 20:41:22;;;;;;;8.60;7.50;;;;;;;12.65;62.73;98520.53;4141675;28;20279;-34
2022/04/05 20:43:25;;;;;;;8.80;7.77;;;;;;;12.87;62.24;98523.06;4143374;28;20244;-31
2022/04/05 20:45:28;;;;;;;9.10;7.20;;;;;;;12.47;63.43;98519.28;4145185;28;20757;-36
2022/04/05 20:47:30;;;;;;;8.90;7.30;;;;;;;12.54;63.15;98505.13;4144473;28;20292;-34
2022/04/05 20:49:31;;;;;;;9.60;7.90;;;;;;;12.56;62.86;98498.59;4143952;28;20244;-38
2022/04/05 20:51:34;;;;;;;10.57;8.00;;;;;;;12.63;62.39;98485.25;4145383;28;20291;-36
2022/04/05 20:53:35;;;;;;;9.33;8.33;;;;;;;12.31;63.07;98474.34;4143826;28;20691;-35
2022/04/05 20:55:37;;;;;;;8.63;7.27;;;;;;;12.35;63.51;98498.75;4145825;28;20604;-32
2022/04/05 20:57:39;;;;;;;9.30;7.47;;;;;;;12.21;63.38;98490.69;4126533;28;20241;-31
2022/04/05 20:59:41;;;;;;;9.37;7.20;;;;;;;12.33;63.62;98508.78;4138259;28;20229;-37
2022/04/05 21:01:42;;;;;;;9.60;7.53;;;;;;;11.83;64.09;98471.66;4144786;28;20247;-36
2022/04/05 21:03:44;;;;;;;10.70;8.03;;;;;;;12.35;63.05;98483.56;4144220;28;20237;-32
2022/04/05 21:05:46;;;;;;;9.67;7.30;;;;;;;12.02;64.20;98481.63;4144879;28;20237;-32
2022/04/05 21:07:47;;;;;;;9.27;7.10;;;;;;;11.82;64.14;98472.72;4145462;28;20724;-36
2022/04/05 21:09:49;;;;;;;7.17;6.47;;;;;;;12.43;62.91;98488.72;4138685;28;20952;-34
2022/04/05 21:11:51;;;;;;;10.23;7.80;;;;;;;13.09;61.62;98505.81;4144279;28;20311;-39
2022/04/05 21:13:52;;;;;;;9.27;8.13;;;;;;;12.38;62.76;98469.03;4143250;28;20890;-31
2022/04/05 21:15:54;;;;;;;9.40;7.10;;;;;;;12.38;63.58;98515.16;4144310;28;20288;-31
2022/04/05 21:17:56;;;;;;;8.43;6.83;;;;;;;11.95;64.24;98499.44;4145085;28;20702;-32
2022/04/05 21:19:58;;;;;;;8.60;7.37;;;;;;;11.86;64.76;98512.06;4143977;28;20233;-36
2022/04/05 21:21:59;;;;;;;8.40;7.30;;;;;;;12.55;62.37;98474.78;4144516;28;20380;-34
2022/04/05 21:24:01;;;;;;;8.37;7.23;;;;;;;11.53;65.79;98511.88;4143799;28;20240;-37
2022/04/05 21:26:05;;;;;;;8.60;7.13;;;;;;;12.47;62.74;98481.13;4143719;28;20284;-32
2022/04/05 21:28:07;;;;;;;8.97;7.57;;;;;;;12.85;61.85;98485.91;4144316;28;20256;-34
2022/04/05 21:30:09;;;;;;;7.90;7.07;;;;;;;12.39;62.77;98463.50;4144593;28;20252;-37
2022/04/05 21:32:13;;;;;;;7.83;7.00;;;;;;;12.39;63.01;98473.34;4144270;28;20237;-37
2022/04/05 21:34:14;;;;;;;8.87;7.17;;;;;;;12.08;64.18;98491.50;4143666;28;20865;-37
2022/04/05 21:36:16;;;;;;;8.73;7.73;;;;;;;12.57;62.84;98489.56;4144094;28;20229;-34
2022/04/05 21:38:18;;;;;;;7.93;7.13;;;;;;;12.36;63.12;98490.53;4144113;28;20580;-33
2022/04/05 21:40:20;;;;;;;9.40;6.90;;;;;;;11.30;65.02;98446.44;4130657;28;20814;-35
2022/04/05 21:42:22;;;;;;;9.87;7.47;;;;;;;11.59;65.91;98515.59;4143549;28;20237;-37
2022/04/05 21:44:24;;;;;;;9.43;6.70;;;;;;;12.01;64.06;98464.00;4143192;28;20225;-37
2022/04/05 21:46:25;;;;;;;8.00;7.00;;;;;;;12.41;63.61;98496.09;4142619;28;20248;-32
2022/04/05 21:48:27;;;;;;;7.63;6.83;;;;;;;12.18;63.68;98468.97;4144745;28;20233;-34
2022/04/05 21:50:29;;;;;;;8.97;7.50;;;;;;;12.57;62.88;98491.41;4143879;28;20761;-35
2022/04/05 21:52:31;;;;;;;8.07;7.10;;;;;;;12.29;63.11;98452.41;4144086;28;20580;-35
2022/04/05 21:54:33;;;;;;;9.43;6.50;;;;;;;12.45;63.34;98481.34;4126817;28;20250;-37
2022/04/05 21:56:35;;;;;;;7.87;6.97;;;;;;;12.00;64.49;98458.84;4143937;28;20233;-36
2022/04/05 21:58:36;;;;;;;8.03;6.77;;;;;;;12.61;63.05;98482.81;4143489;28;20282;-37
2022/04/05 22:00:44;;;;;;;9.23;7.57;;;;;;;12.58;63.03;98469.06;4142564;28;20225;-35
2022/04/05 22:02:46;;;;;;;9.07;7.60;;;;;;;12.63;62.78;98459.41;4147652;28;20230;-36
2022/04/05 22:04:48;;;;;;;7.77;7.00;;;;;;;12.60;62.99;98459.00;4144213;28;20233;-36
2022/04/05 22:06:50;;;;;;;8.10;7.27;;;;;;;12.88;62.22;98469.50;4144145;28;20221;-38
2022/04/05 22:08:52;;;;;;;8.00;6.63;;;;;;;12.46;63.21;98458.97;4140851;28;20273;-35
2022/04/05 22:10:54;;;;;;;8.57;7.20;;;;;;;12.25;63.86;98440.47;4140352;28;20663;-35
2022/04/05 22:12:56;;;;;;;7.43;6.53;;;;;;;12.68;62.65;98458.81;4143195;28;20237;-36
2022/04/05 22:14:58;;;;;;;7.97;7.10;;;;;;;12.66;63.19;98464.34;4143588;28;20694;-32
2022/04/05 22:17:00;;;;;;;7.33;6.63;;;;;;;12.44;63.46;98458.38;4143301;28;20244;-32
2022/04/05 22:19:02;;;;;;;7.87;7.07;;;;;;;12.28;64.21;98461.41;4143326;28;20295;-32
2022/04/05 22:21:07;;;;;;;7.20;6.50;;;;;;;12.27;63.98;98457.94;4143481;28;20283;-31
2022/04/05 22:23:08;;;;;;;7.00;6.30;;;;;;;12.48;63.29;98443.59;4142519;28;20853;-34
2022/04/05 22:25:10;;;;;;;8.17;6.90;;;;;;;12.87;62.90;98477.72;4142892;28;20729;-35
2022/04/05 22:27:12;;;;;;;11.97;6.90;;;;;;;12.55;62.74;98438.28;4144131;28;20229;-32
2022/04/05 22:29:14;;;;;;;8.47;7.03;;;;;;;12.74;62.57;98452.66;4143680;28;20229;-34
2022/04/05 22:31:16;;;;;;;8.87;7.50;;;;;;;13.20;61.34;98462.50;4142922;28;20241;-40
2022/04/05 22:33:17;;;;;;;8.17;7.37;;;;;;;12.27;64.34;98483.78;4142921;28;20243;-37
2022/04/05 22:35:19;;;;;;;7.17;6.40;;;;;;;12.16;63.55;98434.53;4133751;28;20265;-35
2022/04/05 22:37:21;;;;;;;9.03;7.40;;;;;;;12.56;62.65;98423.13;4142469;28;20601;-33
2022/04/05 22:39:23;;;;;;;8.50;7.20;;;;;;;12.60;63.40;98457.16;4137426;28;20719;-31
2022/04/05 22:41:25;;;;;;;8.83;7.07;;;;;;;12.58;62.83;98447.72;4142904;28;20307;-35
2022/04/05 22:43:27;;;;;;;9.03;6.80;;;;;;;12.77;62.69;98454.91;4142134;28;20249;-34
2022/04/05 22:45:29;;;;;;;9.03;7.17;;;;;;;12.96;61.81;98447.13;4143764;28;20702;-35
2022/04/05 22:47:30;;;;;;;8.40;7.47;;;;;;;12.60;62.66;98443.81;4144121;28;20236;-36
2022/04/05 22:49:33;;;;;;;9.23;7.13;;;;;;;12.32;63.63;98465.31;4142708;28;20702;-38
2022/04/05 22:51:34;;;;;;;8.60;7.00;;;;;;;12.59;63.26;98468.00;4143139;28;20236;-35
2022/04/05 22:53:36;;;;;;;10.37;7.17;;;;;;;12.87;62.09;98441.19;4143976;28;20236;-33
2022/04/05 22:55:38;;;;;;;8.33;6.87;;;;;;;12.31;63.55;98449.53;4142785;28;20229;-35
2022/04/05 22:57:40;;;;;;;8.37;7.20;;;;;;;12.85;62.21;98460.03;4143306;28;20311;-33
2022/04/05 22:59:42;;;;;;;10.80;6.83;;;;;;;12.53;62.47;98434.19;4118347;28;20652;-35
2022/04/05 23:01:43;;;;;;;10.57;7.20;;;;;;;12.30;63.27;98432.69;4138001;28;20277;-33
2022/04/05 23:03:45;;;;;;;7.73;6.57;;;;;;;11.35;67.02;98504.41;4142664;28;20241;-37
2022/04/05 23:05:47;;;;;;;8.70;7.43;;;;;;;11.30;67.10;98490.84;4143337;28;20266;-37
2022/04/05 23:07:49;;;;;;;7.37;6.60;;;;;;;13.17;61.50;98452.25;4142953;28;20849;-37
2022/04/05 23:09:50;;;;;;;8.77;6.97;;;;;;;11.79;65.24;98465.94;4137171;28;20237;-35
2022/04/05 23:11:53;;;;;;;7.57;6.30;;;;;;;12.77;62.23;98438.09;4143334;28;20248;-32
2022/04/05 23:13:55;;;;;;;8.43;7.10;;;;;;;12.89;61.94;98432.97;4142800;28;20245;-35
2022/04/05 23:15:56;;;;;;;8.10;7.00;;;;;;;11.74;62.97;98388.47;4142344;28;20236;-32
2022/04/05 23:17:58;;;;;;;8.27;6.23;;;;;;;12.37;64.20;98473.53;4143035;28;20233;-33
2022/04/05 23:20:00;;;;;;;7.87;6.90;;;;;;;12.65;62.40;98438.69;4143483;28;20248;-34
2022/04/05 23:22:02;;;;;;;9.00;7.33;;;;;;;12.21;64.33;98469.38;4155115;22;20684;-30
2022/04/05 23:24:04;;;;;;;8.10;7.30;;;;;;;12.12;64.49;98446.63;4113785;28;20614;-30
2022/04/05 23:26:06;;;;;;;8.93;6.73;;;;;;;12.75;62.47;98443.63;4134933;28;20241;-31
2022/04/05 23:28:08;;;;;;;8.27;6.50;;;;;;;12.52;62.67;98419.19;4136985;28;20233;-30
2022/04/05 23:30:10;;;;;;;8.50;6.83;;;;;;;12.85;61.81;98422.69;4119323;28;20237;-31
2022/04/05 23:32:11;;;;;;;8.83;6.63;;;;;;;11.64;64.03;98404.81;4136493;28;20241;-31
2022/04/05 23:34:13;;;;;;;8.30;7.40;;;;;;;13.29;61.15;98441.75;4136645;28;20240;-31
2022/04/05 23:36:15;;;;;;;8.67;7.40;;;;;;;12.77;61.86;98412.22;4135109;28;20626;-31
2022/04/05 23:38:16;;;;;;;7.63;6.73;;;;;;;12.01;63.03;98394.72;4130573;28;20236;-31
2022/04/05 23:40:18;;;;;;;8.50;6.97;;;;;;;12.93;62.46;98460.91;4129993;28;20539;-31
2022/04/05 23:42:20;;;;;;;7.93;6.73;;;;;;;12.82;62.26;98443.63;4135478;28;20237;-32
2022/04/05 23:44:22;;;;;;;8.70;7.23;;;;;;;12.25;63.81;98428.00;4136886;28;20285;-31